Terminal Aerodrome Forecast
Issued by NWS

Home | Current Version | Previous Version | Text Only | Print | Product List | Glossary On
Versions: 1 2 3 4 5 6 7 8 9 10 11 12
000
FTUS45 KPSR 250535
TAFSDL
TAF
KSDL 250535Z 2506/2606 25008KT P6SM BKN250
     FM251800 26014KT P6SM SCT250
     FM252100 27018G28KT P6SM FEW250
     FM260300 28012KT P6SM FEW250=

USA.gov is the U.S. government's official web portal to all federal, state and local government web resources and services.